Time;durP1;ratioP1;P1;durP2;ratioP2;P2;SDS_P1;SDS_P2;PMS_P1;PMS_P2;Temp;Humidity;BMP_temperature;BMP_pressure;BME280_temperature;BME280_humidity;BME280_pressure;Samples;Min_cycle;Max_cycle;Signal;HPM_P1;HPM_P2
2023/04/04 00:01:43;;;;;;;5.70;2.23;;;;;;;;;;5063392;28;20422;-80
2023/04/04 00:04:09;;;;;;;3.90;2.40;;;;;;;;;;5062915;28;20957;-81
2023/04/04 00:06:36;;;;;;;2.75;2.10;;;;;;;;;;5062901;28;20414;-81
2023/04/04 00:09:02;;;;;;;5.78;2.50;;;;;;;;;;5061888;28;20497;-80
2023/04/04 00:11:30;;;;;;;3.63;2.15;;;;;;;;;;5063666;28;20441;-81
2023/04/04 00:13:56;;;;;;;4.25;2.50;;;;;;;;;;5062336;28;20420;-81
2023/04/04 00:16:23;;;;;;;4.15;2.03;;;;;;;;;;5064196;28;20429;-81
2023/04/04 00:18:49;;;;;;;4.07;2.33;;;;;;;;;;5064160;28;20425;-81
2023/04/04 00:21:15;;;;;;;4.83;2.10;;;;;;;;;;5062752;28;20469;-81
2023/04/04 00:23:42;;;;;;;2.92;2.28;;;;;;;;;;5062380;28;20450;-81
2023/04/04 00:26:08;;;;;;;5.05;2.20;;;;;;;;;;5062648;28;20432;-81
2023/04/04 00:28:36;;;;;;;5.63;2.88;;;;;;;;;;5062319;28;20418;-81
2023/04/04 00:31:02;;;;;;;5.50;2.47;;;;;;;;;;5063284;28;20442;-81
2023/04/04 00:33:29;;;;;;;4.57;1.90;;;;;;;;;;5055175;28;20414;-81
2023/04/04 00:35:55;;;;;;;4.15;2.20;;;;;;;;;;5060510;28;20917;-81
2023/04/04 00:38:22;;;;;;;4.65;3.00;;;;;;;;;;5064528;28;20424;-81
2023/04/04 00:40:49;;;;;;;3.95;2.92;;;;;;;;;;5046369;28;20418;-81
2023/04/04 00:43:16;;;;;;;3.85;2.25;;;;;;;;;;5061721;28;20499;-81
2023/04/04 00:45:44;;;;;;;5.10;2.47;;;;;;;;;;5066650;28;20455;-81
2023/04/04 00:48:10;;;;;;;3.53;2.13;;;;;;;;;;5061770;28;20422;-81
2023/04/04 00:50:37;;;;;;;5.28;2.30;;;;;;;;;;5064085;28;20412;-81
2023/04/04 00:53:03;;;;;;;5.40;2.40;;;;;;;;;;5044421;28;20432;-81
2023/04/04 00:55:30;;;;;;;4.35;2.28;;;;;;;;;;5063283;28;20441;-81
2023/04/04 00:57:59;;;;;;;5.43;2.10;;;;;;;;;;5062222;28;20618;-81
2023/04/04 01:00:26;;;;;;;5.10;2.65;;;;;;;;;;5061064;28;20429;-81
2023/04/04 01:02:54;;;;;;;7.75;2.80;;;;;;;;;;5062149;28;20416;-81
2023/04/04 01:05:20;;;;;;;5.75;2.72;;;;;;;;;;5063552;28;20403;-81
2023/04/04 01:07:47;;;;;;;4.03;2.50;;;;;;;;;;5060065;28;20411;-81
2023/04/04 01:10:13;;;;;;;3.72;2.50;;;;;;;;;;5062432;28;20419;-81
2023/04/04 01:12:41;;;;;;;5.40;3.10;;;;;;;;;;5064506;28;20438;-81
2023/04/04 01:15:08;;;;;;;5.13;2.83;;;;;;;;;;5045370;28;20474;-81
2023/04/04 01:17:35;;;;;;;5.15;2.55;;;;;;;;;;5063132;28;20421;-81
2023/04/04 01:20:05;;;;;;;6.53;2.80;;;;;;;;;;5060592;28;20425;-80
2023/04/04 01:22:33;;;;;;;3.80;2.65;;;;;;;;;;5061060;28;20431;-81
2023/04/04 01:25:00;;;;;;;4.75;2.20;;;;;;;;;;5063449;28;20423;-81
2023/04/04 01:27:28;;;;;;;4.97;2.67;;;;;;;;;;5043223;28;20418;-81
2023/04/04 01:29:54;;;;;;;4.80;2.63;;;;;;;;;;5056783;28;20430;-81
2023/04/04 01:32:24;;;;;;;4.85;2.50;;;;;;;;;;5059345;28;20416;-81
2023/04/04 01:34:56;;;;;;;3.20;2.10;;;;;;;;;;5062310;28;20411;-81
2023/04/04 01:37:27;;;;;;;5.65;2.60;;;;;;;;;;5063595;28;20441;-81
2023/04/04 01:39:54;;;;;;;5.97;2.50;;;;;;;;;;5061598;28;20429;-81
2023/04/04 01:42:21;;;;;;;5.00;2.53;;;;;;;;;;5061602;28;20870;-81
2023/04/04 01:44:54;;;;;;;3.65;2.17;;;;;;;;;;5042358;28;20441;-81
2023/04/04 01:47:20;;;;;;;7.03;2.88;;;;;;;;;;5059628;28;20425;-81
2023/04/04 01:49:47;;;;;;;4.22;2.40;;;;;;;;;;5059069;28;20455;-81
2023/04/04 01:52:14;;;;;;;5.35;2.90;;;;;;;;;;5062669;28;20411;-81
2023/04/04 01:54:40;;;;;;;6.90;2.80;;;;;;;;;;5060599;28;20787;-81
2023/04/04 01:57:07;;;;;;;4.75;2.58;;;;;;;;;;5059845;28;20412;-81
2023/04/04 01:59:35;;;;;;;4.35;2.53;;;;;;;;;;5047213;28;20410;-81
2023/04/04 02:02:02;;;;;;;3.58;2.20;;;;;;;;;;5064094;28;20409;-81
2023/04/04 02:04:29;;;;;;;5.20;2.55;;;;;;;;;;5058940;28;20416;-81
2023/04/04 02:06:56;;;;;;;5.38;2.63;;;;;;;;;;5062894;28;20408;-81
2023/04/04 02:09:22;;;;;;;5.30;2.88;;;;;;;;;;5064726;28;20440;-81
2023/04/04 02:11:48;;;;;;;4.47;2.45;;;;;;;;;;5063678;28;20524;-81
2023/04/04 02:14:15;;;;;;;3.53;2.08;;;;;;;;;;5063974;28;20412;-81
2023/04/04 02:16:42;;;;;;;4.85;2.63;;;;;;;;;;5062224;28;20430;-81
2023/04/04 02:19:10;;;;;;;4.93;2.70;;;;;;;;;;5064215;28;20443;-81
2023/04/04 02:21:37;;;;;;;3.13;2.05;;;;;;;;;;5061969;28;20417;-81
2023/04/04 02:24:03;;;;;;;5.82;3.17;;;;;;;;;;5059163;28;20429;-81
2023/04/04 02:26:30;;;;;;;5.65;2.70;;;;;;;;;;5066380;28;20436;-81
2023/04/04 02:28:56;;;;;;;7.72;2.70;;;;;;;;;;5066545;28;20419;-81
2023/04/04 02:31:22;;;;;;;6.30;2.77;;;;;;;;;;5066837;28;20954;-81
2023/04/04 02:33:49;;;;;;;5.70;2.85;;;;;;;;;;5063547;28;20429;-81
2023/04/04 02:36:16;;;;;;;4.70;2.67;;;;;;;;;;5066097;28;20493;-81
2023/04/04 02:38:43;;;;;;;2.70;2.30;;;;;;;;;;5068509;28;20419;-81
2023/04/04 02:41:09;;;;;;;3.70;2.50;;;;;;;;;;5047171;28;21027;-81
2023/04/04 02:43:35;;;;;;;3.97;2.87;;;;;;;;;;5065719;28;20434;-81
2023/04/04 02:46:02;;;;;;;4.50;2.60;;;;;;;;;;5064301;28;20429;-81
2023/04/04 02:48:28;;;;;;;4.85;2.72;;;;;;;;;;5065041;28;20421;-81
2023/04/04 02:50:54;;;;;;;7.53;2.60;;;;;;;;;;5067252;28;20429;-81
2023/04/04 02:53:23;;;;;;;4.40;2.60;;;;;;;;;;5065877;28;20430;-81
2023/04/04 02:55:49;;;;;;;5.88;2.80;;;;;;;;;;5066814;28;20797;-82
2023/04/04 02:58:16;;;;;;;5.63;2.90;;;;;;;;;;5064229;28;20421;-81
2023/04/04 03:00:42;;;;;;;8.60;3.20;;;;;;;;;;5065194;28;20481;-82
2023/04/04 03:03:09;;;;;;;5.05;2.78;;;;;;;;;;5065652;28;20966;-81
2023/04/04 03:05:35;;;;;;;5.13;2.70;;;;;;;;;;5065620;28;20424;-81
2023/04/04 03:08:03;;;;;;;5.25;2.53;;;;;;;;;;5064521;28;20433;-81
2023/04/04 03:10:31;;;;;;;5.05;2.67;;;;;;;;;;5067051;28;20802;-81
2023/04/04 03:12:57;;;;;;;5.07;3.30;;;;;;;;;;5063877;28;20430;-80
2023/04/04 03:15:24;;;;;;;5.85;2.90;;;;;;;;;;5047835;28;20463;-81
2023/04/04 03:17:51;;;;;;;6.40;2.42;;;;;;;;;;5048015;28;20421;-81
2023/04/04 03:20:18;;;;;;;4.78;2.40;;;;;;;;;;5063289;28;20425;-80
2023/04/04 03:22:44;;;;;;;4.50;2.47;;;;;;;;;;5064180;28;20906;-80
2023/04/04 03:25:11;;;;;;;4.93;2.60;;;;;;;;;;5066741;28;20797;-81
2023/04/04 03:27:39;;;;;;;6.30;2.47;;;;;;;;;;5047595;28;20435;-81
2023/04/04 03:30:06;;;;;;;4.53;2.38;;;;;;;;;;5061469;28;20429;-81
2023/04/04 03:32:33;;;;;;;4.95;2.50;;;;;;;;;;5062971;28;20429;-81
2023/04/04 03:34:59;;;;;;;5.68;2.33;;;;;;;;;;5064259;28;20436;-81
2023/04/04 03:37:27;;;;;;;5.07;2.30;;;;;;;;;;5063332;28;20423;-81
2023/04/04 03:39:55;;;;;;;3.17;2.33;;;;;;;;;;5065586;28;20992;-81
2023/04/04 03:42:21;;;;;;;4.07;2.70;;;;;;;;;;5064832;28;20425;-81
2023/04/04 03:44:49;;;;;;;5.35;3.10;;;;;;;;;;5066927;28;20970;-81
2023/04/04 03:47:16;;;;;;;4.15;2.30;;;;;;;;;;5058332;28;20475;-81
2023/04/04 03:49:42;;;;;;;3.40;2.05;;;;;;;;;;5062281;28;20425;-81
2023/04/04 03:52:08;;;;;;;4.13;2.40;;;;;;;;;;5067660;28;20914;-80
2023/04/04 03:54:35;;;;;;;4.85;2.80;;;;;;;;;;5067552;28;20435;-81
2023/04/04 03:57:02;;;;;;;5.20;2.40;;;;;;;;;;5066919;28;20412;-81
2023/04/04 03:59:29;;;;;;;5.40;2.80;;;;;;;;;;5063299;28;20415;-81
2023/04/04 04:01:57;;;;;;;3.90;2.20;;;;;;;;;;5064094;28;20895;-81
2023/04/04 04:04:23;;;;;;;5.68;2.92;;;;;;;;;;5067266;28;20904;-81
2023/04/04 04:06:50;;;;;;;3.78;2.50;;;;;;;;;;5047674;28;20820;-81
2023/04/04 04:09:16;;;;;;;5.05;2.50;;;;;;;;;;5070583;28;20793;-81
2023/04/04 04:11:42;;;;;;;4.03;2.47;;;;;;;;;;5059445;28;20408;-81
2023/04/04 04:14:09;;;;;;;3.72;2.60;;;;;;;;;;5065564;28;20474;-81
2023/04/04 04:16:40;;;;;;;3.33;2.50;;;;;;;;;;5063674;28;20415;-80
2023/04/04 04:19:07;;;;;;;5.45;2.60;;;;;;;;;;5048853;28;20511;-81
2023/04/04 04:21:35;;;;;;;5.00;2.50;;;;;;;;;;5065861;28;20944;-81
2023/04/04 04:24:02;;;;;;;4.93;2.60;;;;;;;;;;5063288;28;20452;-80
2023/04/04 04:26:28;;;;;;;3.67;2.63;;;;;;;;;;5065214;28;20437;-81
2023/04/04 04:28:55;;;;;;;4.70;3.00;;;;;;;;;;5067031;28;20425;-81
2023/04/04 04:31:21;;;;;;;5.40;3.00;;;;;;;;;;5066209;28;20431;-81
2023/04/04 04:33:49;;;;;;;4.50;2.90;;;;;;;;;;5048527;28;20496;-81
2023/04/04 04:36:17;;;;;;;5.38;2.63;;;;;;;;;;5063370;28;20429;-81
2023/04/04 04:38:43;;;;;;;4.43;2.88;;;;;;;;;;5059163;28;20413;-81
2023/04/04 04:41:10;;;;;;;4.75;3.00;;;;;;;;;;5063852;28;20433;-81
2023/04/04 04:43:36;;;;;;;4.38;2.72;;;;;;;;;;5046310;28;20416;-81
2023/04/04 04:46:03;;;;;;;4.95;2.45;;;;;;;;;;5064167;28;20423;-81
2023/04/04 04:48:29;;;;;;;5.40;2.87;;;;;;;;;;5059822;28;20455;-81
2023/04/04 04:50:55;;;;;;;5.30;2.90;;;;;;;;;;5067556;28;20427;-81
2023/04/04 04:53:23;;;;;;;5.40;2.55;;;;;;;;;;5064720;28;20431;-80
2023/04/04 04:55:51;;;;;;;5.15;2.95;;;;;;;;;;5066022;28;20922;-81
2023/04/04 04:58:20;;;;;;;5.00;3.10;;;;;;;;;;5064254;28;20438;-80
2023/04/04 05:00:46;;;;;;;5.55;3.13;;;;;;;;;;5066001;28;20431;-81
2023/04/04 05:03:12;;;;;;;7.03;3.30;;;;;;;;;;5065499;28;20430;-81
2023/04/04 05:05:39;;;;;;;5.00;2.88;;;;;;;;;;5061824;28;20432;-81
2023/04/04 05:08:05;;;;;;;5.40;3.40;;;;;;;;;;5063374;28;20419;-81
2023/04/04 05:10:33;;;;;;;5.45;3.17;;;;;;;;;;5047581;28;20456;-81
2023/04/04 05:13:00;;;;;;;5.67;3.20;;;;;;;;;;5063049;28;20436;-81
2023/04/04 05:15:28;;;;;;;4.88;3.30;;;;;;;;;;5067003;28;20442;-81
2023/04/04 05:17:54;;;;;;;7.85;3.30;;;;;;;;;;5067307;28;20491;-81
2023/04/04 05:20:20;;;;;;;4.47;3.15;;;;;;;;;;5066503;28;20412;-81
2023/04/04 05:22:47;;;;;;;4.22;2.70;;;;;;;;;;5065335;28;20420;-81
2023/04/04 05:25:13;;;;;;;6.55;3.25;;;;;;;;;;5064417;28;20416;-81
2023/04/04 05:27:41;;;;;;;4.70;2.90;;;;;;;;;;5064820;28;20416;-81
2023/04/04 05:30:08;;;;;;;3.78;3.00;;;;;;;;;;5068624;28;20431;-81
2023/04/04 05:32:35;;;;;;;4.22;2.83;;;;;;;;;;5066765;28;20428;-81
2023/04/04 05:35:01;;;;;;;6.07;3.22;;;;;;;;;;5065918;28;20424;-81
2023/04/04 05:37:28;;;;;;;5.10;2.97;;;;;;;;;;5064302;28;20424;-81
2023/04/04 05:39:55;;;;;;;6.20;3.00;;;;;;;;;;5060363;28;20430;-81
2023/04/04 05:42:21;;;;;;;5.20;2.80;;;;;;;;;;5065845;28;20786;-81
2023/04/04 05:44:49;;;;;;;4.30;2.70;;;;;;;;;;5063714;28;20795;-81
2023/04/04 05:47:15;;;;;;;4.50;3.10;;;;;;;;;;5063257;28;20451;-81
2023/04/04 05:49:42;;;;;;;3.50;2.85;;;;;;;;;;5061181;28;20432;-81
2023/04/04 05:52:11;;;;;;;5.32;3.25;;;;;;;;;;5067292;28;20408;-81
2023/04/04 05:54:37;;;;;;;4.63;3.20;;;;;;;;;;5064545;28;20439;-81
2023/04/04 05:57:04;;;;;;;6.47;3.60;;;;;;;;;;5049638;28;20764;-81
2023/04/04 05:59:30;;;;;;;5.13;3.40;;;;;;;;;;5066526;28;20785;-81
2023/04/04 06:01:58;;;;;;;7.55;3.20;;;;;;;;;;5064069;28;20408;-81
2023/04/04 06:04:24;;;;;;;4.85;3.60;;;;;;;;;;5068815;28;20417;-81
2023/04/04 06:06:52;;;;;;;6.85;3.08;;;;;;;;;;5071860;28;20955;-81
2023/04/04 06:09:18;;;;;;;7.63;3.77;;;;;;;;;;5053166;28;20478;-81
2023/04/04 06:11:45;;;;;;;6.00;3.70;;;;;;;;;;5067641;28;20408;-81
2023/04/04 06:14:11;;;;;;;7.83;4.20;;;;;;;;;;5065092;28;20475;-81
2023/04/04 06:16:37;;;;;;;6.57;3.90;;;;;;;;;;5066014;28;20431;-81
2023/04/04 06:19:05;;;;;;;7.40;3.85;;;;;;;;;;5068700;28;20426;-81
2023/04/04 06:21:32;;;;;;;7.40;3.40;;;;;;;;;;5066091;28;20421;-81
2023/04/04 06:23:58;;;;;;;5.18;3.78;;;;;;;;;;5069121;28;20411;-81
2023/04/04 06:26:25;;;;;;;5.20;3.05;;;;;;;;;;5060720;28;20432;-82
2023/04/04 06:28:53;;;;;;;5.03;3.20;;;;;;;;;;5051863;28;20422;-81
2023/04/04 06:31:20;;;;;;;8.00;3.33;;;;;;;;;;5067196;28;20431;-82
2023/04/04 06:33:46;;;;;;;8.18;3.45;;;;;;;;;;5060837;28;20812;-82
2023/04/04 06:36:14;;;;;;;5.00;3.00;;;;;;;;;;5067117;28;20431;-82
2023/04/04 06:38:40;;;;;;;8.13;3.80;;;;;;;;;;5067242;28;20423;-81
2023/04/04 06:41:07;;;;;;;8.07;3.60;;;;;;;;;;5066772;28;20407;-82
2023/04/04 06:43:33;;;;;;;5.90;2.90;;;;;;;;;;5063028;28;20421;-81
2023/04/04 06:46:00;;;;;;;6.55;3.20;;;;;;;;;;5066117;28;20424;-81
2023/04/04 06:48:26;;;;;;;5.57;3.30;;;;;;;;;;5063928;28;20472;-81
2023/04/04 06:50:52;;;;;;;4.97;3.13;;;;;;;;;;5044489;28;20930;-81
2023/04/04 06:53:22;;;;;;;4.40;3.00;;;;;;;;;;5062350;28;20421;-81
2023/04/04 06:55:49;;;;;;;8.27;2.90;;;;;;;;;;5046588;28;20421;-81
2023/04/04 06:58:15;;;;;;;5.28;3.50;;;;;;;;;;5046782;28;20823;-81
2023/04/04 07:00:42;;;;;;;5.28;2.45;;;;;;;;;;5065915;28;20405;-81
2023/04/04 07:03:09;;;;;;;5.65;3.30;;;;;;;;;;5066114;28;20416;-81
2023/04/04 07:05:38;;;;;;;4.45;2.72;;;;;;;;;;5051209;28;20424;-79
2023/04/04 07:08:05;;;;;;;5.00;2.90;;;;;;;;;;5066768;28;20411;-80
2023/04/04 07:10:33;;;;;;;4.05;2.75;;;;;;;;;;5065734;28;20421;-80
2023/04/04 07:12:59;;;;;;;5.53;2.83;;;;;;;;;;5064531;28;20425;-80
2023/04/04 07:15:26;;;;;;;6.20;2.80;;;;;;;;;;5066147;28;20932;-80
2023/04/04 07:17:53;;;;;;;4.88;2.67;;;;;;;;;;5051737;28;20425;-80
2023/04/04 07:20:20;;;;;;;5.60;3.13;;;;;;;;;;5064970;28;20427;-80
2023/04/04 07:22:46;;;;;;;6.95;2.97;;;;;;;;;;5061761;28;20493;-80
2023/04/04 07:25:13;;;;;;;8.63;3.08;;;;;;;;;;5063884;28;20430;-80
2023/04/04 07:27:40;;;;;;;6.63;3.22;;;;;;;;;;5050028;28;20418;-80
2023/04/04 07:30:08;;;;;;;7.50;3.40;;;;;;;;;;5047370;28;20428;-80
2023/04/04 07:32:34;;;;;;;5.03;2.95;;;;;;;;;;5064423;28;20415;-80
2023/04/04 07:35:00;;;;;;;5.75;3.67;;;;;;;;;;5068783;28;20434;-80
2023/04/04 07:37:27;;;;;;;6.22;3.50;;;;;;;;;;5067211;28;20416;-80
2023/04/04 07:39:53;;;;;;;6.18;3.22;;;;;;;;;;5063396;28;20414;-80
2023/04/04 07:42:22;;;;;;;6.47;3.50;;;;;;;;;;5063927;28;20418;-80
2023/04/04 07:44:49;;;;;;;6.30;3.38;;;;;;;;;;5065359;28;20428;-80
2023/04/04 07:47:16;;;;;;;5.97;3.47;;;;;;;;;;5065283;28;20421;-80
2023/04/04 07:49:42;;;;;;;6.20;2.90;;;;;;;;;;5047068;28;20424;-80
2023/04/04 07:52:09;;;;;;;5.95;3.40;;;;;;;;;;5062991;28;20792;-80
2023/04/04 07:54:35;;;;;;;7.40;3.58;;;;;;;;;;5064010;28;20413;-80
2023/04/04 07:57:04;;;;;;;7.18;3.85;;;;;;;;;;5064248;28;20412;-80
2023/04/04 07:59:30;;;;;;;8.05;3.90;;;;;;;;;;5062174;28;20412;-80
2023/04/04 08:01:58;;;;;;;5.93;3.67;;;;;;;;;;5060444;28;20415;-80
2023/04/04 08:04:25;;;;;;;7.63;3.75;;;;;;;;;;5044180;28;20889;-80
2023/04/04 08:06:52;;;;;;;5.75;3.70;;;;;;;;;;5064877;28;20430;-80
2023/04/04 08:09:18;;;;;;;5.90;3.50;;;;;;;;;;5043277;28;20461;-80
2023/04/04 08:11:46;;;;;;;9.55;4.18;;;;;;;;;;5059399;28;20433;-80
2023/04/04 08:14:12;;;;;;;8.98;4.25;;;;;;;;;;5065521;28;20412;-80
2023/04/04 08:16:38;;;;;;;8.23;4.60;;;;;;;;;;5060743;28;20421;-80
2023/04/04 08:19:07;;;;;;;8.10;3.67;;;;;;;;;;5063190;28;20415;-80
2023/04/04 08:21:34;;;;;;;6.57;4.20;;;;;;;;;;5063148;28;20477;-81
2023/04/04 08:24:01;;;;;;;9.27;3.95;;;;;;;;;;5063769;28;20812;-80
2023/04/04 08:26:28;;;;;;;5.32;3.50;;;;;;;;;;5062316;28;20942;-80
2023/04/04 08:28:54;;;;;;;9.73;3.72;;;;;;;;;;5064897;28;20419;-81
2023/04/04 08:31:21;;;;;;;11.00;4.00;;;;;;;;;;5062170;28;20432;-80
2023/04/04 08:33:47;;;;;;;6.43;3.35;;;;;;;;;;5045784;28;20441;-80
2023/04/04 08:36:15;;;;;;;6.28;3.78;;;;;;;;;;5063511;28;20430;-80
2023/04/04 08:38:41;;;;;;;6.17;2.97;;;;;;;;;;5060184;28;20416;-80
2023/04/04 08:41:08;;;;;;;8.10;3.60;;;;;;;;;;5061764;28;20409;-80
2023/04/04 08:43:36;;;;;;;7.90;4.05;;;;;;;;;;5056985;28;20417;-80
2023/04/04 08:46:04;;;;;;;7.03;3.90;;;;;;;;;;5061082;28;20789;-80
2023/04/04 08:48:31;;;;;;;6.15;3.97;;;;;;;;;;5062817;28;20425;-80
2023/04/04 08:50:59;;;;;;;7.18;4.40;;;;;;;;;;5065541;28;20436;-80
2023/04/04 08:53:29;;;;;;;6.50;3.17;;;;;;;;;;5061106;28;20518;-80
2023/04/04 08:55:56;;;;;;;5.67;3.20;;;;;;;;;;5058764;28;20423;-80
2023/04/04 08:58:23;;;;;;;6.75;3.42;;;;;;;;;;5059375;28;20424;-80
2023/04/04 09:00:52;;;;;;;5.55;2.90;;;;;;;;;;5065461;28;20415;-80
2023/04/04 09:03:21;;;;;;;6.80;3.20;;;;;;;;;;5059885;28;20424;-80
2023/04/04 09:05:48;;;;;;;5.00;2.92;;;;;;;;;;5062615;28;20921;-80
2023/04/04 09:08:14;;;;;;;5.03;3.20;;;;;;;;;;5061189;28;20433;-80
2023/04/04 09:10:43;;;;;;;5.97;3.67;;;;;;;;;;5063374;28;20423;-80
2023/04/04 09:13:10;;;;;;;6.32;3.60;;;;;;;;;;5059692;28;20409;-80
2023/04/04 09:15:37;;;;;;;5.45;3.42;;;;;;;;;;5040684;28;20427;-80
2023/04/04 09:18:04;;;;;;;5.97;2.95;;;;;;;;;;5060189;28;20423;-80
2023/04/04 09:20:38;;;;;;;7.65;3.20;;;;;;;;;;5063317;28;20429;-80
2023/04/04 09:23:08;;;;;;;6.47;3.17;;;;;;;;;;5063640;28;20413;-80
2023/04/04 09:25:35;;;;;;;6.72;3.83;;;;;;;;;;5062978;28;20411;-80
2023/04/04 09:28:04;;;;;;;5.70;2.65;;;;;;;;;;5059323;28;20428;-80
2023/04/04 09:30:31;;;;;;;3.20;2.58;;;;;;;;;;5063711;28;20411;-80
2023/04/04 09:33:00;;;;;;;4.57;3.00;;;;;;;;;;5064043;28;20492;-80
2023/04/04 09:35:27;;;;;;;5.60;3.17;;;;;;;;;;5063452;28;20454;-80
2023/04/04 09:37:53;;;;;;;7.13;2.90;;;;;;;;;;5047751;28;20421;-80
2023/04/04 09:40:22;;;;;;;6.47;3.28;;;;;;;;;;5065499;28;20418;-80
2023/04/04 09:42:51;;;;;;;5.93;3.03;;;;;;;;;;5045647;28;20514;-80
2023/04/04 09:45:19;;;;;;;5.40;3.03;;;;;;;;;;5066247;28;20415;-80
2023/04/04 09:47:45;;;;;;;5.15;3.00;;;;;;;;;;5063030;28;20423;-80
2023/04/04 09:50:20;;;;;;;4.18;2.80;;;;;;;;;;5064734;28;20435;-81
2023/04/04 09:52:48;;;;;;;5.10;2.70;;;;;;;;;;5063106;28;20438;-80
2023/04/04 09:55:15;;;;;;;4.00;2.50;;;;;;;;;;5047118;28;20459;-80
2023/04/04 09:57:42;;;;;;;4.28;2.13;;;;;;;;;;5068962;28;20827;-80
2023/04/04 10:00:09;;;;;;;3.78;2.25;;;;;;;;;;5048982;28;20472;-80
2023/04/04 10:02:40;;;;;;;3.30;2.40;;;;;;;;;;5064338;28;20425;-80
2023/04/04 10:05:09;;;;;;;2.80;1.90;;;;;;;;;;5065719;28;20925;-80
2023/04/04 10:07:38;;;;;;;5.15;2.60;;;;;;;;;;5064190;28;20417;-80
2023/04/04 10:10:05;;;;;;;5.70;2.33;;;;;;;;;;5064738;28;20493;-80
2023/04/04 10:12:31;;;;;;;4.50;2.20;;;;;;;;;;5061665;28;20443;-80
2023/04/04 10:14:58;;;;;;;2.90;2.00;;;;;;;;;;5057955;28;20424;-80
2023/04/04 10:17:25;;;;;;;2.60;2.10;;;;;;;;;;5066985;28;20916;-80
2023/04/04 10:19:53;;;;;;;3.30;1.88;;;;;;;;;;5066889;28;20418;-80
2023/04/04 10:22:20;;;;;;;2.20;1.80;;;;;;;;;;5046064;28;20421;-80
2023/04/04 10:24:47;;;;;;;3.20;1.90;;;;;;;;;;5065185;28;20415;-80
2023/04/04 10:27:13;;;;;;;3.03;1.92;;;;;;;;;;5063328;28;20417;-80
2023/04/04 10:29:40;;;;;;;3.00;2.25;;;;;;;;;;5069522;28;20931;-80
2023/04/04 10:32:09;;;;;;;3.97;2.20;;;;;;;;;;5065011;28;20453;-80
2023/04/04 10:34:38;;;;;;;5.88;2.30;;;;;;;;;;5062946;28;20421;-80
2023/04/04 10:37:08;;;;;;;5.80;2.50;;;;;;;;;;5047526;28;20428;-80
2023/04/04 10:39:37;;;;;;;3.13;1.90;;;;;;;;;;5062072;28;20471;-80
2023/04/04 10:42:05;;;;;;;4.40;1.90;;;;;;;;;;5068587;28;20411;-80
2023/04/04 10:44:32;;;;;;;3.83;2.00;;;;;;;;;;5047038;28;20408;-80
2023/04/04 10:47:02;;;;;;;3.70;2.05;;;;;;;;;;5064540;28;20425;-80
2023/04/04 10:49:30;;;;;;;4.80;2.20;;;;;;;;;;5062584;28;20488;-80
2023/04/04 10:51:57;;;;;;;3.65;1.90;;;;;;;;;;5047203;28;20479;-80
2023/04/04 10:54:25;;;;;;;3.35;2.10;;;;;;;;;;5064756;28;20437;-80
2023/04/04 10:56:52;;;;;;;3.25;1.88;;;;;;;;;;5063343;28;20424;-80
2023/04/04 10:59:18;;;;;;;2.80;1.92;;;;;;;;;;5065017;28;20487;-80
2023/04/04 11:01:49;;;;;;;4.18;1.80;;;;;;;;;;5061113;28;20421;-80
2023/04/04 11:04:16;;;;;;;4.30;2.10;;;;;;;;;;5062709;28;20416;-80
2023/04/04 11:07:02;;;;;;;2.92;2.10;;;;;;;;;;5047443;28;20423;-80
2023/04/04 11:09:49;;;;;;;4.60;1.75;;;;;;;;;;5060468;28;20806;-80
2023/04/04 11:12:19;;;;;;;5.38;2.50;;;;;;;;;;5062020;28;20433;-80
2023/04/04 11:14:54;;;;;;;2.25;1.60;;;;;;;;;;5063698;28;20415;-80
2023/04/04 11:17:25;;;;;;;3.10;1.90;;;;;;;;;;5047700;28;20417;-80
2023/04/04 11:19:58;;;;;;;4.72;2.00;;;;;;;;;;5047724;28;20444;-80
2023/04/04 11:22:25;;;;;;;5.03;2.10;;;;;;;;;;5064986;28;20423;-80
2023/04/04 11:25:00;;;;;;;2.40;2.00;;;;;;;;;;5032028;28;20423;-80
2023/04/04 11:27:27;;;;;;;3.88;2.20;;;;;;;;;;5063804;28;20431;-80
2023/04/04 11:29:53;;;;;;;4.03;2.10;;;;;;;;;;5059392;28;20439;-80
2023/04/04 11:32:30;;;;;;;4.90;2.40;;;;;;;;;;5065206;28;20807;-80
2023/04/04 11:34:56;;;;;;;3.35;2.30;;;;;;;;;;5063901;28;20417;-81
2023/04/04 11:37:23;;;;;;;2.67;1.90;;;;;;;;;;5065005;28;20432;-80
2023/04/04 11:39:56;;;;;;;4.35;2.20;;;;;;;;;;5060764;28;20453;-80
2023/04/04 11:42:23;;;;;;;3.28;2.40;;;;;;;;;;5064546;28;20425;-80
2023/04/04 11:45:02;;;;;;;4.35;2.55;;;;;;;;;;5063488;28;20461;-81
2023/04/04 11:47:29;;;;;;;3.17;2.17;;;;;;;;;;5067993;28;20415;-80
2023/04/04 11:49:56;;;;;;;4.82;2.38;;;;;;;;;;5064115;28;20511;-80
2023/04/04 11:52:24;;;;;;;2.50;2.20;;;;;;;;;;5061899;28;20431;-80
2023/04/04 11:54:51;;;;;;;5.15;2.30;;;;;;;;;;5063284;28;20487;-80
2023/04/04 11:57:18;;;;;;;4.60;2.40;;;;;;;;;;5064314;28;20485;-81
2023/04/04 11:59:46;;;;;;;4.40;2.30;;;;;;;;;;5045908;28;20448;-80
2023/04/04 12:02:13;;;;;;;4.22;2.17;;;;;;;;;;5064875;28;20411;-80
2023/04/04 12:04:43;;;;;;;2.97;2.10;;;;;;;;;;5060308;28;20407;-80
2023/04/04 12:07:09;;;;;;;4.63;2.00;;;;;;;;;;5063871;28;20508;-80
2023/04/04 12:09:36;;;;;;;4.20;2.22;;;;;;;;;;5043444;28;20418;-81
2023/04/04 12:12:03;;;;;;;3.85;2.20;;;;;;;;;;5061482;28;20462;-80
2023/04/04 12:14:32;;;;;;;3.97;1.98;;;;;;;;;;5064229;28;20411;-80
2023/04/04 12:17:02;;;;;;;3.33;1.95;;;;;;;;;;5044093;28;20422;-80
2023/04/04 12:19:30;;;;;;;1.90;1.70;;;;;;;;;;5061173;28;20467;-80
2023/04/04 12:21:57;;;;;;;4.82;2.35;;;;;;;;;;5062696;28;20419;-80
2023/04/04 12:24:24;;;;;;;2.72;2.17;;;;;;;;;;5061079;28;20407;-80
2023/04/04 12:26:51;;;;;;;4.93;1.80;;;;;;;;;;5067567;28;20423;-80
2023/04/04 12:29:20;;;;;;;4.10;2.00;;;;;;;;;;5063339;28;20413;-80
2023/04/04 12:31:46;;;;;;;4.20;2.33;;;;;;;;;;5065241;28;20426;-80
2023/04/04 12:34:19;;;;;;;3.97;2.33;;;;;;;;;;5061069;28;20767;-80
2023/04/04 12:36:46;;;;;;;4.97;2.55;;;;;;;;;;5061826;28;20412;-80
2023/04/04 12:39:15;;;;;;;3.50;2.30;;;;;;;;;;5061532;28;20407;-80
2023/04/04 12:41:47;;;;;;;5.32;2.50;;;;;;;;;;5061480;28;20432;-80
2023/04/04 12:44:26;;;;;;;5.97;2.70;;;;;;;;;;5062856;28;20404;-80
2023/04/04 12:46:52;;;;;;;3.50;2.30;;;;;;;;;;5043346;28;20421;-80
2023/04/04 12:49:21;;;;;;;3.22;2.30;;;;;;;;;;5062430;28;20407;-80
2023/04/04 12:51:47;;;;;;;6.78;2.80;;;;;;;;;;5059735;28;20476;-81
2023/04/04 12:54:25;;;;;;;3.90;2.00;;;;;;;;;;5061219;28;20459;-80
2023/04/04 12:56:54;;;;;;;2.78;2.45;;;;;;;;;;5047298;28;20437;-80
2023/04/04 12:59:21;;;;;;;4.50;2.40;;;;;;;;;;5064308;28;20437;-80
2023/04/04 13:01:48;;;;;;;4.63;2.67;;;;;;;;;;5061024;28;20484;-80
2023/04/04 13:04:16;;;;;;;2.88;2.45;;;;;;;;;;5063944;28;20926;-81
2023/04/04 13:06:46;;;;;;;3.70;2.25;;;;;;;;;;5066378;28;20497;-80
2023/04/04 13:09:17;;;;;;;5.07;2.50;;;;;;;;;;5056106;28;20952;-81
2023/04/04 13:11:56;;;;;;;3.67;2.50;;;;;;;;;;5063696;28;20780;-81
2023/04/04 13:14:22;;;;;;;3.80;2.20;;;;;;;;;;5062079;28;20959;-80
2023/04/04 13:17:01;;;;;;;2.43;1.87;;;;;;;;;;5064767;28;20427;-81
2023/04/04 13:19:28;;;;;;;3.90;2.40;;;;;;;;;;5062639;28;20536;-80
2023/04/04 13:21:55;;;;;;;4.22;2.58;;;;;;;;;;5060541;28;20419;-81
2023/04/04 13:24:22;;;;;;;4.10;2.43;;;;;;;;;;5063400;28;20781;-80
2023/04/04 13:26:48;;;;;;;2.63;2.17;;;;;;;;;;5058683;28;20416;-80
2023/04/04 13:29:16;;;;;;;3.22;2.65;;;;;;;;;;5059987;28;20419;-80
2023/04/04 13:31:42;;;;;;;5.18;2.70;;;;;;;;;;5061233;28;20440;-80
2023/04/04 13:34:10;;;;;;;4.13;2.60;;;;;;;;;;5064467;28;21120;-80
2023/04/04 13:36:36;;;;;;;4.35;2.58;;;;;;;;;;5060541;28;20412;-81
2023/04/04 13:39:04;;;;;;;3.00;2.22;;;;;;;;;;5066127;28;20424;-80
2023/04/04 13:41:30;;;;;;;3.30;2.45;;;;;;;;;;5062817;28;20500;-81
2023/04/04 13:43:57;;;;;;;4.50;2.33;;;;;;;;;;5063769;28;20404;-81
2023/04/04 13:46:23;;;;;;;4.50;2.60;;;;;;;;;;5061715;28;20429;-81
2023/04/04 13:48:50;;;;;;;4.50;2.40;;;;;;;;;;5062338;28;20408;-80
2023/04/04 13:51:17;;;;;;;4.13;2.65;;;;;;;;;;5057627;28;20831;-80
2023/04/04 13:53:43;;;;;;;3.43;2.40;;;;;;;;;;5046787;28;20429;-80
2023/04/04 13:56:11;;;;;;;5.50;2.40;;;;;;;;;;5064427;28;20422;-81
2023/04/04 13:58:37;;;;;;;5.05;2.72;;;;;;;;;;5066503;28;20405;-81
2023/04/04 14:01:04;;;;;;;5.35;2.60;;;;;;;;;;5060495;28;20411;-80
2023/04/04 14:03:31;;;;;;;5.00;2.38;;;;;;;;;;5063034;28;20408;-80
2023/04/04 14:05:57;;;;;;;3.08;2.60;;;;;;;;;;5061558;28;20433;-81
2023/04/04 14:08:24;;;;;;;3.92;2.50;;;;;;;;;;5060627;28;20428;-80
2023/04/04 14:10:50;;;;;;;4.10;2.80;;;;;;;;;;5062387;28;20418;-81
2023/04/04 14:13:18;;;;;;;3.53;2.60;;;;;;;;;;5044671;28;20493;-80
2023/04/04 14:15:45;;;;;;;4.53;2.60;;;;;;;;;;5064334;28;20447;-80
2023/04/04 14:18:12;;;;;;;4.15;2.70;;;;;;;;;;5062154;28;20500;-81
2023/04/04 14:20:38;;;;;;;2.95;2.25;;;;;;;;;;5044191;28;20478;-80
2023/04/04 14:23:05;;;;;;;4.53;2.80;;;;;;;;;;5065344;28;20479;-80
2023/04/04 14:25:31;;;;;;;4.30;2.90;;;;;;;;;;5064072;28;20415;-81
2023/04/04 14:27:57;;;;;;;4.82;3.00;;;;;;;;;;5067985;28;20809;-80
2023/04/04 14:30:25;;;;;;;3.70;2.53;;;;;;;;;;5067463;28;20797;-81
2023/04/04 14:32:52;;;;;;;4.50;3.22;;;;;;;;;;5062100;28;20429;-81
2023/04/04 14:35:19;;;;;;;4.18;2.83;;;;;;;;;;5062468;28;20420;-81
2023/04/04 14:37:45;;;;;;;3.60;2.78;;;;;;;;;;5066043;28;20421;-81
2023/04/04 14:40:12;;;;;;;4.23;2.90;;;;;;;;;;5064952;28;20475;-80
2023/04/04 14:42:39;;;;;;;3.70;2.97;;;;;;;;;;5065894;28;20446;-80
2023/04/04 14:45:07;;;;;;;4.10;2.90;;;;;;;;;;5064740;28;20471;-80